sensor_id;sensor_type;location;lat;lon;timestamp;pressure;altitude;pressure_sealevel;temperature;humidity
48154;BME280;33942;49.272;14.452;2022-11-06T09:49:56;97469.81;;;1.71;100.00
48154;BME280;33942;49.272;14.452;2022-11-06T09:52:29;97461.94;;;3.91;100.00
48154;BME280;33942;49.272;14.452;2022-11-06T09:55:00;97459.55;;;6.65;100.00
48154;BME280;33942;49.272;14.452;2022-11-06T09:57:34;97456.73;;;6.97;100.00
48154;BME280;33942;49.272;14.452;2022-11-06T10:00:05;97455.80;;;7.16;100.00
48154;BME280;33942;49.272;14.452;2022-11-06T10:02:36;97463.82;;;7.46;100.00
48154;BME280;33942;49.272;14.452;2022-11-06T10:05:13;97461.54;;;7.98;100.00
48154;BME280;33942;49.272;14.452;2022-11-06T10:07:43;97459.74;;;8.09;100.00
48154;BME280;33942;49.272;14.452;2022-11-06T10:10:17;97458.58;;;8.79;100.00
48154;BME280;33942;49.272;14.452;2022-11-06T10:13:34;97454.24;;;8.51;100.00
48154;BME280;33942;49.272;14.452;2022-11-06T10:16:12;97450.15;;;8.71;100.00
48154;BME280;33942;49.272;14.452;2022-11-06T10:18:53;97445.57;;;8.90;100.00
48154;BME280;33942;49.272;14.452;2022-11-06T10:21:26;97438.03;;;9.12;100.00
48154;BME280;33942;49.272;14.452;2022-11-06T10:24:08;97429.78;;;8.97;100.00
48154;BME280;33942;49.272;14.452;2022-11-06T10:26:47;97430.59;;;9.01;100.00
48154;BME280;33942;49.272;14.452;2022-11-06T10:30:00;97423.94;;;9.25;100.00
48154;BME280;33942;49.272;14.452;2022-11-06T10:32:43;97422.23;;;8.88;100.00
48154;BME280;33942;49.272;14.452;2022-11-06T10:35:17;97417.24;;;9.47;100.00
48154;BME280;33942;49.272;14.452;2022-11-06T10:37:52;97417.06;;;9.18;100.00
48154;BME280;33942;49.272;14.452;2022-11-06T10:40:23;97410.67;;;9.49;100.00
48154;BME280;33942;49.272;14.452;2022-11-06T10:42:57;97402.58;;;9.22;100.00
48154;BME280;33942;49.272;14.452;2022-11-06T10:45:28;97399.18;;;9.20;100.00
48154;BME280;33942;49.272;14.452;2022-11-06T10:47:59;97395.67;;;9.46;99.41
48154;BME280;33942;49.272;14.452;2022-11-06T10:50:17;97393.14;;;9.41;99.52
48154;BME280;33942;49.272;14.452;2022-11-06T10:52:50;97385.71;;;9.58;97.70
48154;BME280;33942;49.272;14.452;2022-11-06T10:56:45;97378.28;;;9.81;97.11
48154;BME280;33942;49.272;14.452;2022-11-06T10:59:15;97373.61;;;10.10;96.34
48154;BME280;33942;49.272;14.452;2022-11-06T11:01:44;97365.87;;;10.35;95.38
48154;BME280;33942;49.272;14.452;2022-11-06T11:04:11;97358.15;;;10.41;94.35
48154;BME280;33942;49.272;14.452;2022-11-06T11:06:39;97354.54;;;10.46;96.43
48154;BME280;33942;49.272;14.452;2022-11-06T11:09:28;97351.68;;;10.10;95.74
48154;BME280;33942;49.272;14.452;2022-11-06T11:11:56;97347.93;;;10.34;94.10
48154;BME280;33942;49.272;14.452;2022-11-06T11:14:25;97346.34;;;10.28;95.53
48154;BME280;33942;49.272;14.452;2022-11-06T11:16:54;97336.95;;;10.20;94.72
48154;BME280;33942;49.272;14.452;2022-11-06T11:19:25;97334.95;;;10.49;94.11
48154;BME280;33942;49.272;14.452;2022-11-06T11:21:55;97332.18;;;10.58;93.60
48154;BME280;33942;49.272;14.452;2022-11-06T11:24:23;97330.90;;;10.38;94.89
48154;BME280;33942;49.272;14.452;2022-11-06T11:26:53;97330.04;;;10.40;95.11
48154;BME280;33942;49.272;14.452;2022-11-06T11:29:25;97320.97;;;10.56;93.44
48154;BME280;33942;49.272;14.452;2022-11-06T11:31:55;97314.26;;;10.67;93.75
48154;BME280;33942;49.272;14.452;2022-11-06T11:34:25;97311.58;;;10.61;92.91
48154;BME280;33942;49.272;14.452;2022-11-06T11:36:56;97308.69;;;10.73;92.83
48154;BME280;33942;49.272;14.452;2022-11-06T11:39:29;97306.39;;;10.84;93.38
48154;BME280;33942;49.272;14.452;2022-11-06T11:42:39;97298.64;;;11.12;93.27
48154;BME280;33942;49.272;14.452;2022-11-06T11:45:17;97297.35;;;11.20;93.14
48154;BME280;33942;49.272;14.452;2022-11-06T11:47:46;97292.55;;;11.18;91.93
48154;BME280;33942;49.272;14.452;2022-11-06T11:50:25;97283.33;;;11.13;90.60
48154;BME280;33942;49.272;14.452;2022-11-06T11:52:55;97279.45;;;11.37;90.63
48154;BME280;33942;49.272;14.452;2022-11-06T11:55:26;97270.87;;;11.60;90.88
48154;BME280;33942;49.272;14.452;2022-11-06T11:57:57;97264.09;;;11.65;88.86
48154;BME280;33942;49.272;14.452;2022-11-06T12:00:25;97257.95;;;11.62;89.21
48154;BME280;33942;49.272;14.452;2022-11-06T12:02:57;97251.37;;;11.43;87.77
48154;BME280;33942;49.272;14.452;2022-11-06T12:05:31;97244.43;;;11.80;86.95
48154;BME280;33942;49.272;14.452;2022-11-06T12:07:59;97239.14;;;11.57;89.34
48154;BME280;33942;49.272;14.452;2022-11-06T12:10:29;97238.56;;;11.43;87.45
48154;BME280;33942;49.272;14.452;2022-11-06T12:13:00;97234.43;;;11.95;87.05
48154;BME280;33942;49.272;14.452;2022-11-06T12:15:36;97229.56;;;12.22;86.01
48154;BME280;33942;49.272;14.452;2022-11-06T12:18:06;97232.11;;;12.43;84.48
48154;BME280;33942;49.272;14.452;2022-11-06T12:20:40;97227.44;;;12.46;84.83
48154;BME280;33942;49.272;14.452;2022-11-06T12:23:13;97223.77;;;12.71;85.41
48154;BME280;33942;49.272;14.452;2022-11-06T12:25:48;97223.78;;;13.25;85.68
48154;BME280;33942;49.272;14.452;2022-11-06T12:28:18;97219.38;;;13.34;85.49
48154;BME280;33942;49.272;14.452;2022-11-06T12:30:55;97216.29;;;13.53;86.36
48154;BME280;33942;49.272;14.452;2022-11-06T12:33:26;97218.98;;;13.96;86.59
48154;BME280;33942;49.272;14.452;2022-11-06T12:35:58;97218.32;;;14.30;84.25
48154;BME280;33942;49.272;14.452;2022-11-06T12:38:30;97218.11;;;14.39;85.59
48154;BME280;33942;49.272;14.452;2022-11-06T12:41:01;97218.05;;;14.52;81.75
48154;BME280;33942;49.272;14.452;2022-11-06T12:43:35;97217.71;;;14.87;77.84
48154;BME280;33942;49.272;14.452;2022-11-06T12:46:14;97211.85;;;15.00;77.83
48154;BME280;33942;49.272;14.452;2022-11-06T12:48:57;97207.13;;;14.87;76.79
48154;BME280;33942;49.272;14.452;2022-11-06T12:51:07;97202.30;;;15.00;76.35
48154;BME280;33942;49.272;14.452;2022-11-06T12:53:49;97195.90;;;15.20;76.11
48154;BME280;33942;49.272;14.452;2022-11-06T12:56:25;97190.40;;;14.95;74.54
48154;BME280;33942;49.272;14.452;2022-11-06T12:59:11;97178.72;;;14.99;75.97
48154;BME280;33942;49.272;14.452;2022-11-06T13:01:47;97169.48;;;15.09;77.39
48154;BME280;33942;49.272;14.452;2022-11-06T13:04:29;97166.39;;;15.34;77.77
48154;BME280;33942;49.272;14.452;2022-11-06T13:07:13;97160.28;;;15.44;76.87
48154;BME280;33942;49.272;14.452;2022-11-06T13:09:49;97161.37;;;15.35;75.69
48154;BME280;33942;49.272;14.452;2022-11-06T13:12:22;97159.60;;;15.54;73.96
48154;BME280;33942;49.272;14.452;2022-11-06T13:15:03;97149.67;;;15.75;74.10
48154;BME280;33942;49.272;14.452;2022-11-06T13:17:35;97143.72;;;15.71;75.07
48154;BME280;33942;49.272;14.452;2022-11-06T13:20:13;97146.97;;;15.34;72.35
48154;BME280;33942;49.272;14.452;2022-11-06T13:22:48;97145.21;;;15.69;71.86
48154;BME280;33942;49.272;14.452;2022-11-06T13:25:21;97136.34;;;15.41;72.52
48154;BME280;33942;49.272;14.452;2022-11-06T13:27:53;97135.14;;;14.91;72.58
48154;BME280;33942;49.272;14.452;2022-11-06T13:30:23;97130.67;;;15.05;72.66
48154;BME280;33942;49.272;14.452;2022-11-06T13:33:01;97133.41;;;14.64;73.51
48154;BME280;33942;49.272;14.452;2022-11-06T13:35:33;97125.53;;;14.67;73.18
48154;BME280;33942;49.272;14.452;2022-11-06T13:38:02;97121.22;;;14.64;73.54
48154;BME280;33942;49.272;14.452;2022-11-06T13:40:36;97118.47;;;14.13;74.80
48154;BME280;33942;49.272;14.452;2022-11-06T13:43:11;97108.12;;;14.52;75.81
48154;BME280;33942;49.272;14.452;2022-11-06T13:45:47;97104.13;;;15.17;78.47
48154;BME280;33942;49.272;14.452;2022-11-06T13:48:25;97108.24;;;15.34;77.84
48154;BME280;33942;49.272;14.452;2022-11-06T13:51:38;97103.78;;;15.10;75.94
48154;BME280;33942;49.272;14.452;2022-11-06T13:54:18;97097.14;;;16.16;76.10
48154;BME280;33942;49.272;14.452;2022-11-06T13:57:15;97091.08;;;16.27;74.06
48154;BME280;33942;49.272;14.452;2022-11-06T14:00:15;97080.59;;;16.05;71.67
48154;BME280;33942;49.272;14.452;2022-11-06T14:03:13;97071.05;;;16.14;71.71
48154;BME280;33942;49.272;14.452;2022-11-06T14:05:51;97066.97;;;16.56;71.38
48154;BME280;33942;49.272;14.452;2022-11-06T14:08:22;97062.34;;;16.69;70.14
48154;BME280;33942;49.272;14.452;2022-11-06T14:10:55;97059.92;;;16.32;70.09
48154;BME280;33942;49.272;14.452;2022-11-06T14:13:25;97056.55;;;16.46;70.57
48154;BME280;33942;49.272;14.452;2022-11-06T14:16:28;97050.11;;;16.35;71.61
48154;BME280;33942;49.272;14.452;2022-11-06T14:18:59;97046.56;;;16.06;65.82
48154;BME280;33942;49.272;14.452;2022-11-06T14:21:44;97040.06;;;15.83;64.52
48154;BME280;33942;49.272;14.452;2022-11-06T14:24:27;97034.31;;;15.88;65.22
48154;BME280;33942;49.272;14.452;2022-11-06T14:26:55;97028.56;;;15.43;65.66
48154;BME280;33942;49.272;14.452;2022-11-06T14:29:56;97028.36;;;15.54;65.33
48154;BME280;33942;49.272;14.452;2022-11-06T14:32:38;97030.36;;;15.05;65.40
48154;BME280;33942;49.272;14.452;2022-11-06T14:35:51;97025.64;;;14.95;65.85
48154;BME280;33942;49.272;14.452;2022-11-06T14:38:38;97021.76;;;14.67;66.22
48154;BME280;33942;49.272;14.452;2022-11-06T14:41:57;97024.41;;;14.36;66.64
48154;BME280;33942;49.272;14.452;2022-11-06T14:44:32;97023.85;;;14.03;67.17
48154;BME280;33942;49.272;14.452;2022-11-06T14:47:04;97018.23;;;13.99;67.71
48154;BME280;33942;49.272;14.452;2022-11-06T14:49:37;97021.66;;;13.87;68.50
48154;BME280;33942;49.272;14.452;2022-11-06T14:54:27;97013.88;;;13.61;67.81
48154;BME280;33942;49.272;14.452;2022-11-06T14:56:55;97014.38;;;13.89;67.64
48154;BME280;33942;49.272;14.452;2022-11-06T14:59:31;97009.24;;;13.39;68.77
48154;BME280;33942;49.272;14.452;2022-11-06T15:02:09;97011.85;;;13.22;69.66
48154;BME280;33942;49.272;14.452;2022-11-06T15:04:45;97009.57;;;12.44;70.93
48154;BME280;33942;49.272;14.452;2022-11-06T15:07:34;97006.01;;;12.63;71.72
48154;BME280;33942;49.272;14.452;2022-11-06T15:10:49;97011.78;;;12.05;72.42
48154;BME280;33942;49.272;14.452;2022-11-06T15:13:33;97013.90;;;12.07;73.23
